Wallingford, Connecticut
Current Conditions -  °F | °C
As of 10:53 AM on Sunday 25 Jan 2015 (Local Time) from KMMK Reporting Station
Broken Clouds Broken Clouds  
Wind Chill:   Ceiling: 4800
Heat Index:   Visibility: 10mi
Dew Point: -5°   Wind: 9mph
Humidity: 55%   Direction: 300°WNW
Pressure: 29.7"   Gusts: 20mph
Location:  41.46°N, 72.82°W
Report Text: KMMK 251553Z AUTO 30008G17KT 10SM FEW039 BKN048 BKN060 03/M05 A2970 RMK AO2 SLP058 T00331050 TSNO
Loading
Personal Weather Stations






























Interactive Weather Map New forecast layout! Learn more

10-Day Weather Forecast

Advertisements
Track Severe Weather on mobile